Huvudsida
METAR-TAF:

METAR-TAF

Flygplatser :

Lusaka International Airport

Lusaka, Zambia

latitud: 15-19-51S, longitud: 028-27-09E, höjd: 1152 m

Aktuellt väderrapport

Denna rapport gjordes för 32 minuter sedan, klockan 12:00 UTC
Vind 9 kt från ost
Temperatur 27°C
Fuktighet 20%
Tryck 1021 hPa
Sikt 10 km eller mer
Inga moln under 1 500 m eller inga cumulonimbus

METAR: FLKK 191200Z 09009KT CAVOK 27/02 Q1021 NOSIG

Tid: 14:32 (12:32 UTC)

Väderprognos

Denna rapport gjordes för 8 timmar och 32 minuter sedan, klockan 04:00 UTC
Prognos gäller från 19 kl. 06 UTC till 20 kl. 12 UTC
Vind 5 kt från ost
Sikt: 9000 m
torrdis
Blir
från 19 kl. 07 UTC till 19 kl. 09 UTC
Vind 10 kt från ost
Från 19 kl. 1500 UTC
Vind 10 kt från ost/nordost
Sikt 10 km eller mer
Inga moln under 1 500 m eller inga cumulonimbus

TAF: FLKK 190400Z 1906/2012 09005KT 9000 HZ NSC BECMG 1907/1909 09010KT FM191500 06010KT CAVOK

Aktuella väderrapporter och prognoser från 4000 flygplatser (METAR- och TAF-rapporter).

De tillgängliga stationerna syns som gula och röda prickar på kartan.

För musen över prickarna för att se namnen på stationerna.

Klicka sedan för att få väderrapporter och prognoser.

För att ändra kartan: Klicka på de gröna knapparna med ett svart kors på för att zooma in; den gröna knappen med ett streck på för att zooma ut; eller på de gröna pilarna för angränsande kartor.


METAR-TAF: